createdAt,value
2022-08-28T00:00:40.757Z,97286.53
2022-08-28T00:03:43.074Z,97291.59
2022-08-28T00:06:44.647Z,97280.28
2022-08-28T00:09:46.540Z,97290.72
2022-08-28T00:12:49.056Z,97290.56
2022-08-28T00:15:53.787Z,97291.88
2022-08-28T00:18:55.466Z,97287.44
2022-08-28T00:21:57.390Z,97283.78
2022-08-28T00:24:58.918Z,97274.91
2022-08-28T00:28:05.539Z,97288.38
2022-08-28T00:31:10.643Z,97288.91
2022-08-28T00:34:12.887Z,97289.06
2022-08-28T00:37:14.661Z,97291.25
2022-08-28T00:40:19.928Z,97294.44
2022-08-28T00:43:45.983Z,97288.84
2022-08-28T00:46:50.224Z,97286.31
2022-08-28T00:49:54.709Z,97283.41
2022-08-28T00:53:01.210Z,97287.69
2022-08-28T00:56:10.233Z,97275.44
2022-08-28T00:59:17.609Z,97277.13
2022-08-28T01:02:19.304Z,97282.50
2022-08-28T01:05:22.176Z,97284.53
2022-08-28T01:08:23.810Z,97286.31
2022-08-28T01:11:26.006Z,97288.97
2022-08-28T01:14:30.382Z,97293.66
2022-08-28T01:17:34.567Z,97287.25
2022-08-28T01:20:47.854Z,97289.66
2022-08-28T01:23:58.081Z,97285.78
2022-08-28T01:26:59.891Z,97285.44
2022-08-28T01:30:01.947Z,97284.75
2022-08-28T01:33:04.317Z,97283.59
2022-08-28T01:36:06.298Z,97281.94
2022-08-28T01:39:20.574Z,97274.50
2022-08-28T01:42:22.471Z,97268.00
2022-08-28T01:45:24.414Z,97268.22
2022-08-28T01:48:26.628Z,97264.00
2022-08-28T01:51:28.215Z,97266.47
2022-08-28T01:54:36.815Z,97271.03
2022-08-28T01:57:52.922Z,97278.41
2022-08-28T02:00:54.569Z,97272.47
2022-08-28T02:03:56.757Z,97277.38
2022-08-28T02:06:58.654Z,97266.13
2022-08-28T02:10:00.240Z,97273.03
2022-08-28T02:13:03.240Z,97272.00
2022-08-28T02:16:08.810Z,97273.28
2022-08-28T02:19:12.012Z,97268.38
2022-08-28T02:22:13.650Z,97272.78
2022-08-28T02:25:16.819Z,97282.00
2022-08-28T02:28:18.600Z,97268.69
2022-08-28T02:31:20.607Z,97279.44
2022-08-28T02:34:23.022Z,97287.13
2022-08-28T02:37:24.688Z,97287.13
2022-08-28T02:40:28.227Z,97284.75
2022-08-28T02:43:29.828Z,97284.63
2022-08-28T02:46:31.487Z,97280.25
2022-08-28T02:49:36.196Z,97276.22
2022-08-28T02:52:38.087Z,97277.50
2022-08-28T02:55:39.880Z,97273.94
2022-08-28T02:58:41.432Z,97272.63
2022-08-28T03:01:43.094Z,97271.16
2022-08-28T03:04:44.916Z,97274.19
2022-08-28T03:07:46.782Z,97272.69
2022-08-28T03:10:48.358Z,97277.38
2022-08-28T03:13:52.267Z,97283.09
2022-08-28T03:16:54.090Z,97279.72
2022-08-28T03:19:55.906Z,97280.72
2022-08-28T03:23:15.964Z,97282.91
2022-08-28T03:26:20.170Z,97288.47
2022-08-28T03:29:21.768Z,97280.75
2022-08-28T03:32:23.339Z,97282.06
2022-08-28T03:35:24.869Z,97295.78
2022-08-28T03:38:26.737Z,97288.38
2022-08-28T03:41:30.212Z,97294.31
2022-08-28T03:44:31.794Z,97293.16
2022-08-28T03:47:36.127Z,97296.50
2022-08-28T03:50:40.326Z,97299.03
2022-08-28T03:53:42.855Z,97296.16
2022-08-28T03:56:44.422Z,97298.66
2022-08-28T03:59:47.723Z,97303.03
2022-08-28T04:02:49.219Z,97306.38
2022-08-28T04:09:26.308Z,97301.16
2022-08-28T04:12:28.011Z,97305.72
2022-08-28T04:15:31.834Z,97303.84
2022-08-28T04:18:33.565Z,97296.97
2022-08-28T04:21:35.113Z,97298.28
2022-08-28T04:24:36.880Z,97312.91
2022-08-28T04:27:38.719Z,97310.41
2022-08-28T04:30:41.874Z,97308.88
2022-08-28T04:33:43.753Z,97305.53
2022-08-28T04:36:46.769Z,97306.38
2022-08-28T04:39:48.315Z,97302.84
2022-08-28T04:42:51.435Z,97306.38
2022-08-28T04:45:53.070Z,97308.41
2022-08-28T04:48:55.352Z,97304.88
2022-08-28T04:51:56.882Z,97310.06
2022-08-28T04:54:58.446Z,97303.84
2022-08-28T04:58:01.383Z,97325.88
2022-08-28T05:01:09.190Z,97323.66
2022-08-28T05:04:12.434Z,97319.50
2022-08-28T05:07:14.393Z,97324.50
2022-08-28T05:10:16.062Z,97323.84
2022-08-28T05:13:20.992Z,97326.38
2022-08-28T05:16:22.908Z,97326.50
2022-08-28T05:19:26.566Z,97332.38
2022-08-28T05:22:30.958Z,97323.63
2022-08-28T05:25:37.559Z,97334.06
2022-08-28T05:28:40.476Z,97331.56
2022-08-28T05:31:42.567Z,97334.06
2022-08-28T05:34:46.241Z,97332.53
2022-08-28T05:37:47.773Z,97336.72
2022-08-28T05:40:50.327Z,97334.84
2022-08-28T05:43:58.728Z,97341.06
2022-08-28T05:47:08.752Z,97330.34
2022-08-28T05:50:13.891Z,97334.19
2022-08-28T05:53:17.923Z,97345.28
2022-08-28T05:56:30.833Z,97348.28
2022-08-28T05:59:34.155Z,97351.28
2022-08-28T06:02:36.766Z,97352.47
2022-08-28T06:05:38.473Z,97344.91
2022-08-28T06:08:58.295Z,97341.66
2022-08-28T06:12:02.265Z,97353.44
2022-08-28T06:15:04.052Z,97340.75
2022-08-28T06:18:12.243Z,97340.88
2022-08-28T06:21:14.149Z,97343.91
2022-08-28T06:24:15.684Z,97341.84
2022-08-28T06:27:17.465Z,97341.97
2022-08-28T06:30:19.343Z,97344.34
2022-08-28T06:33:21.922Z,97346.13
2022-08-28T06:36:25.010Z,97344.34
2022-08-28T06:39:26.927Z,97348.63
2022-08-28T06:42:28.452Z,97344.03
2022-08-28T06:45:31.002Z,97349.50
2022-08-28T06:48:32.757Z,97353.16
2022-08-28T06:51:35.138Z,97349.72
2022-08-28T06:54:36.658Z,97357.13
2022-08-28T06:57:39.580Z,97347.38
2022-08-28T07:00:41.141Z,97349.44
2022-08-28T07:03:44.606Z,97350.56
2022-08-28T07:06:53.042Z,97364.47
2022-08-28T07:09:56.065Z,97358.59
2022-08-28T07:12:57.563Z,97364.50
2022-08-28T07:15:59.483Z,97367.88
2022-08-28T07:19:04.669Z,97366.47
2022-08-28T07:22:09.041Z,97374.03
2022-08-28T07:25:11.238Z,97364.19
2022-08-28T07:28:12.942Z,97365.72
2022-08-28T07:31:17.891Z,97368.41
2022-08-28T07:34:22.677Z,97373.63
2022-08-28T07:37:28.818Z,97377.53
2022-08-28T07:40:32.383Z,97385.31
2022-08-28T07:43:52.467Z,97381.66
2022-08-28T07:47:00.948Z,97383.25
2022-08-28T07:50:03.500Z,97385.66
2022-08-28T07:53:05.819Z,97391.53
2022-08-28T07:56:08.037Z,97398.00
2022-08-28T07:59:11.506Z,97393.84
2022-08-28T08:02:16.502Z,97389.41
2022-08-28T08:05:18.063Z,97398.47
2022-08-28T08:08:19.779Z,97397.47
2022-08-28T08:11:21.278Z,97402.34
2022-08-28T08:14:25.502Z,97399.38
2022-08-28T08:17:26.984Z,97393.31
2022-08-28T08:20:28.618Z,97400.13
2022-08-28T08:23:30.091Z,97402.00
2022-08-28T08:26:32.446Z,97394.56
2022-08-28T08:29:37.486Z,97398.94
2022-08-28T08:32:39.984Z,97406.91
2022-08-28T08:35:41.450Z,97409.16
2022-08-28T08:38:43.751Z,97408.88
2022-08-28T08:41:51.119Z,97412.78
2022-08-28T08:44:55.197Z,97411.03
2022-08-28T08:47:57.299Z,97403.84
2022-08-28T08:51:03.683Z,97412.88
2022-08-28T08:54:10.451Z,97416.72
2022-08-28T08:57:14.746Z,97418.47
2022-08-28T09:00:16.913Z,97413.78
2022-08-28T09:03:39.167Z,97411.38
2022-08-28T09:06:58.346Z,97417.06
2022-08-28T09:09:59.927Z,97418.84
2022-08-28T09:13:26.261Z,97431.53
2022-08-28T09:16:36.410Z,97419.31
2022-08-28T09:19:37.943Z,97432.16
2022-08-28T09:22:46.882Z,97423.09
2022-08-28T09:25:48.616Z,97421.84
2022-08-28T09:29:05.494Z,97428.63
2022-08-28T09:32:34.963Z,97429.00
2022-08-28T09:35:37.996Z,97424.97
2022-08-28T09:38:39.462Z,97423.47
2022-08-28T09:42:21.461Z,97428.66
2022-08-28T09:45:26.766Z,97425.13
2022-08-28T09:48:37.928Z,97418.59
2022-08-28T09:51:40.539Z,97411.16
2022-08-28T09:54:44.645Z,97419.50
2022-08-28T09:57:47.594Z,97427.97
2022-08-28T10:00:57.691Z,97421.13
2022-08-28T10:04:09.816Z,97418.59
2022-08-28T10:07:29.745Z,97418.13
2022-08-28T10:10:39.211Z,97411.22
2022-08-28T10:13:53.694Z,97416.25
2022-08-28T10:17:32.648Z,97412.63
2022-08-28T10:20:37.230Z,97415.31
2022-08-28T10:24:11.499Z,97411.88
2022-08-28T10:28:09.581Z,97404.00
2022-08-28T10:31:33.035Z,97412.97
2022-08-28T10:34:55.961Z,97410.59
2022-08-28T10:38:18.202Z,97408.59
2022-08-28T10:41:21.814Z,97409.22
2022-08-28T10:44:36.310Z,97408.53
2022-08-28T10:47:42.290Z,97398.91
2022-08-28T10:50:47.971Z,97407.94
2022-08-28T10:53:55.656Z,97405.22
2022-08-28T10:57:24.706Z,97402.97
2022-08-28T11:00:28.566Z,97404.41
2022-08-28T11:03:36.700Z,97403.19
2022-08-28T11:07:01.134Z,97398.38
2022-08-28T11:10:23.885Z,97405.03
2022-08-28T11:13:57.161Z,97410.78
2022-08-28T11:17:11.095Z,97415.94
2022-08-28T11:20:22.644Z,97423.41
2022-08-28T11:23:35.246Z,97417.34
2022-08-28T11:26:56.483Z,97417.97
2022-08-28T11:30:09.685Z,97413.75
2022-08-28T11:33:45.923Z,97408.53
2022-08-28T11:36:47.522Z,97406.44
2022-08-28T11:39:50.421Z,97407.09
2022-08-28T11:42:52.333Z,97402.16
2022-08-28T11:45:54.793Z,97410.06
2022-08-28T11:48:59.374Z,97417.41
2022-08-28T11:52:12.284Z,97407.03
2022-08-28T11:55:38.757Z,97410.91
2022-08-28T11:58:56.656Z,97408.84
2022-08-28T12:02:36.933Z,97413.91
2022-08-28T12:05:45.752Z,97422.25
2022-08-28T12:08:52.947Z,97410.13
2022-08-28T12:11:57.375Z,97413.69
2022-08-28T12:15:02.709Z,97405.09
2022-08-28T12:18:13.453Z,97405.56
2022-08-28T12:21:20.961Z,97401.34
2022-08-28T12:24:24.284Z,97397.75
2022-08-28T12:27:26.782Z,97402.19
2022-08-28T12:30:41.499Z,97399.28
2022-08-28T12:33:54.913Z,97390.66
2022-08-28T12:37:00.395Z,97393.19
2022-08-28T12:40:21.310Z,97403.41
2022-08-28T12:43:36.040Z,97397.31
2022-08-28T12:46:44.852Z,97401.75
2022-08-28T12:49:46.503Z,97397.34
2022-08-28T12:52:55.159Z,97392.94
2022-08-28T12:55:56.697Z,97391.84
2022-08-28T12:59:36.513Z,97392.97
2022-08-28T13:02:38.121Z,97396.56
2022-08-28T13:05:41.016Z,97388.78
2022-08-28T13:08:42.612Z,97390.44
2022-08-28T13:11:50.263Z,97385.44
2022-08-28T13:14:52.269Z,97383.06
2022-08-28T13:17:54.903Z,97381.00
2022-08-28T13:21:15.014Z,97384.41
2022-08-28T13:24:27.224Z,97377.53
2022-08-28T13:27:29.341Z,97381.44
2022-08-28T13:30:33.786Z,97374.75
2022-08-28T13:33:35.582Z,97374.72
2022-08-28T13:36:45.002Z,97374.88
2022-08-28T13:39:46.483Z,97369.06
2022-08-28T13:42:48.814Z,97369.69
2022-08-28T13:45:51.784Z,97374.69
2022-08-28T13:48:53.390Z,97368.91
2022-08-28T13:52:00.025Z,97368.84
2022-08-28T13:55:02.341Z,97367.59
2022-08-28T13:58:04.367Z,97367.34
2022-08-28T14:01:06.139Z,97363.53
2022-08-28T14:04:07.709Z,97364.56
2022-08-28T14:07:09.332Z,97361.94
2022-08-28T14:10:10.853Z,97352.88
2022-08-28T14:13:12.594Z,97362.81
2022-08-28T14:16:16.652Z,97359.72
2022-08-28T14:19:18.494Z,97353.91
2022-08-28T14:22:19.952Z,97350.00
2022-08-28T14:25:21.431Z,97344.31
2022-08-28T14:28:22.990Z,97346.47
2022-08-28T14:31:26.469Z,97345.94
2022-08-28T14:34:28.470Z,97344.94
2022-08-28T14:37:29.955Z,97348.09
2022-08-28T14:40:31.646Z,97335.78
2022-08-28T14:43:34.405Z,97340.59
2022-08-28T14:46:37.146Z,97345.09
2022-08-28T14:49:39.254Z,97339.91
2022-08-28T14:52:40.838Z,97336.97
2022-08-28T14:55:48.280Z,97336.31
2022-08-28T14:58:49.844Z,97334.28
2022-08-28T15:01:53.448Z,97338.91
2022-08-28T15:04:55.046Z,97336.59
2022-08-28T15:07:56.908Z,97335.03
2022-08-28T15:10:59.028Z,97344.84
2022-08-28T15:14:00.522Z,97334.75
2022-08-28T15:17:02.196Z,97337.56
2022-08-28T15:20:05.342Z,97332.34
2022-08-28T15:23:07.173Z,97331.53
2022-08-28T15:26:12.241Z,97334.84
2022-08-28T15:29:17.448Z,97331.22
2022-08-28T15:32:19.025Z,97335.34
2022-08-28T15:35:20.524Z,97334.66
2022-08-28T15:38:22.570Z,97330.06
2022-08-28T15:41:24.088Z,97332.81
2022-08-28T15:44:26.139Z,97322.72
2022-08-28T15:47:27.649Z,97324.59
2022-08-28T15:50:29.126Z,97324.19
2022-08-28T15:53:30.588Z,97319.03
2022-08-28T15:56:32.118Z,97320.09
2022-08-28T15:59:42.386Z,97320.28
2022-08-28T16:02:51.100Z,97329.34
2022-08-28T16:05:53.065Z,97331.56
2022-08-28T16:08:55.375Z,97327.06
2022-08-28T16:11:57.000Z,97322.50
2022-08-28T16:14:58.531Z,97325.97
2022-08-28T16:18:00.013Z,97336.78
2022-08-28T16:21:04.806Z,97332.34
2022-08-28T16:24:06.718Z,97331.75
2022-08-28T16:27:13.119Z,97329.94
2022-08-28T16:30:17.349Z,97328.53
2022-08-28T16:33:20.082Z,97323.53
2022-08-28T16:36:23.860Z,97325.56
2022-08-28T16:39:25.454Z,97319.34
2022-08-28T16:42:32.247Z,97324.41
2022-08-28T16:45:34.441Z,97327.31
2022-08-28T16:48:35.936Z,97318.69
2022-08-28T16:51:38.973Z,97324.72
2022-08-28T16:54:48.365Z,97314.88
2022-08-28T16:57:50.426Z,97326.00
2022-08-28T17:00:52.661Z,97323.13
2022-08-28T17:03:56.493Z,97324.63
2022-08-28T17:06:57.906Z,97327.59
2022-08-28T17:10:00.141Z,97333.47
2022-08-28T17:13:01.939Z,97334.72
2022-08-28T17:16:03.996Z,97341.81
2022-08-28T17:19:05.569Z,97338.47
2022-08-28T17:22:27.452Z,97334.31
2022-08-28T17:25:29.366Z,97338.69
2022-08-28T17:28:31.038Z,97336.81
2022-08-28T17:31:33.776Z,97342.88
2022-08-28T17:34:36.260Z,97346.19
2022-08-28T17:37:39.317Z,97350.16
2022-08-28T17:40:41.599Z,97349.13
2022-08-28T17:43:43.190Z,97356.59
2022-08-28T17:46:44.953Z,97354.94
2022-08-28T17:49:46.636Z,97353.63
2022-08-28T17:52:48.116Z,97354.88
2022-08-28T17:55:51.002Z,97359.88
2022-08-28T17:58:52.489Z,97364.66
2022-08-28T18:01:54.499Z,97360.19
2022-08-28T18:04:56.130Z,97364.16
2022-08-28T18:07:57.805Z,97368.03
2022-08-28T18:10:59.278Z,97366.66
2022-08-28T18:14:01.187Z,97376.78
2022-08-28T18:17:03.902Z,97382.13
2022-08-28T18:20:08.252Z,97388.94
2022-08-28T18:23:10.066Z,97381.44
2022-08-28T18:26:12.140Z,97380.94
2022-08-28T18:29:14.111Z,97392.38
2022-08-28T18:32:15.662Z,97401.59
2022-08-28T18:35:17.246Z,97406.19
2022-08-28T18:38:21.728Z,97411.97
2022-08-28T18:41:30.676Z,97416.06
2022-08-28T18:44:44.810Z,97417.16
2022-08-28T18:47:46.281Z,97420.84
2022-08-28T18:50:48.601Z,97425.19
2022-08-28T18:53:50.438Z,97429.19
2022-08-28T18:56:58.414Z,97432.66
2022-08-28T19:00:05.711Z,97441.66
2022-08-28T19:03:07.577Z,97444.66
2022-08-28T19:06:12.569Z,97446.41
2022-08-28T19:09:19.175Z,97453.41
2022-08-28T19:12:22.179Z,97452.03
2022-08-28T19:15:23.706Z,97452.19
2022-08-28T19:18:25.380Z,97452.66
2022-08-28T19:21:28.076Z,97466.94
2022-08-28T19:24:36.052Z,97461.25
2022-08-28T19:27:38.103Z,97468.59
2022-08-28T19:30:39.644Z,97467.66
2022-08-28T19:33:41.180Z,97460.66
2022-08-28T19:36:44.904Z,97455.78
2022-08-28T19:39:56.007Z,97461.16
2022-08-28T19:42:57.837Z,97463.34
2022-08-28T19:46:02.260Z,97474.16
2022-08-28T19:49:05.732Z,97467.03
2022-08-28T19:52:07.705Z,97471.41
2022-08-28T19:55:14.280Z,97469.16
2022-08-28T19:58:16.386Z,97470.56
2022-08-28T20:01:17.946Z,97474.56
2022-08-28T20:04:19.609Z,97475.38
2022-08-28T20:07:21.229Z,97473.31
2022-08-28T20:10:23.104Z,97487.31
2022-08-28T20:13:25.468Z,97490.06
2022-08-28T20:16:29.014Z,97485.81
2022-08-28T20:19:30.543Z,97494.25
2022-08-28T20:22:32.267Z,97504.16
2022-08-28T20:25:34.836Z,97491.22
2022-08-28T20:28:36.838Z,97491.09
2022-08-28T20:31:40.442Z,97493.38
2022-08-28T20:34:44.519Z,97502.25
2022-08-28T20:37:46.611Z,97496.78
2022-08-28T20:40:48.165Z,97494.16
2022-08-28T20:43:50.022Z,97496.97
2022-08-28T20:46:51.812Z,97493.69
2022-08-28T20:49:56.604Z,97495.81
2022-08-28T20:52:58.906Z,97493.84
2022-08-28T20:56:03.950Z,97500.03
2022-08-28T20:59:05.915Z,97502.44
2022-08-28T21:02:11.559Z,97509.19
2022-08-28T21:05:13.728Z,97509.56
2022-08-28T21:08:15.521Z,97512.97
2022-08-28T21:11:17.422Z,97515.59
2022-08-28T21:14:19.075Z,97512.59
2022-08-28T21:17:29.910Z,97513.88
2022-08-28T21:20:32.242Z,97508.47
2022-08-28T21:23:33.885Z,97515.47
2022-08-28T21:26:37.484Z,97517.53
2022-08-28T21:29:39.677Z,97514.53
2022-08-28T21:32:41.621Z,97520.88
2022-08-28T21:35:43.609Z,97525.28
2022-08-28T21:38:45.133Z,97518.34
2022-08-28T21:41:47.084Z,97516.88
2022-08-28T21:44:51.632Z,97516.81
2022-08-28T21:47:53.686Z,97526.34
2022-08-28T21:50:55.626Z,97526.13
2022-08-28T21:53:57.139Z,97525.78
2022-08-28T21:56:59.008Z,97524.81
2022-08-28T22:00:00.621Z,97535.13
2022-08-28T22:03:02.132Z,97534.97
2022-08-28T22:06:03.740Z,97539.00
2022-08-28T22:09:05.866Z,97540.28
2022-08-28T22:12:08.961Z,97530.09
2022-08-28T22:15:10.603Z,97529.75
2022-08-28T22:18:14.069Z,97535.97
2022-08-28T22:21:39.122Z,97544.03
2022-08-28T22:24:40.597Z,97536.44
2022-08-28T22:27:42.146Z,97539.97
2022-08-28T22:30:43.804Z,97546.22
2022-08-28T22:33:45.391Z,97544.72
2022-08-28T22:36:47.007Z,97533.75
2022-08-28T22:39:48.660Z,97539.00
2022-08-28T22:42:50.757Z,97525.31
2022-08-28T22:45:52.430Z,97528.16
2022-08-28T22:48:53.861Z,97526.38
2022-08-28T22:51:55.379Z,97531.72
2022-08-28T22:54:57.333Z,97534.41
2022-08-28T22:57:59.255Z,97541.84
2022-08-28T23:01:08.182Z,97542.38
2022-08-28T23:04:11.102Z,97539.34
2022-08-28T23:07:12.633Z,97539.31
2022-08-28T23:10:15.931Z,97543.47
2022-08-28T23:13:17.525Z,97542.75
2022-08-28T23:16:23.795Z,97544.16
2022-08-28T23:19:25.618Z,97538.13
2022-08-28T23:22:27.139Z,97540.53
2022-08-28T23:25:28.609Z,97533.19
2022-08-28T23:28:30.258Z,97542.94
2022-08-28T23:31:31.756Z,97536.94
2022-08-28T23:34:33.958Z,97539.84
2022-08-28T23:37:37.457Z,97532.97
2022-08-28T23:40:39.350Z,97524.66
2022-08-28T23:43:40.917Z,97524.50
2022-08-28T23:46:43.717Z,97522.72
2022-08-28T23:49:45.149Z,97527.19
2022-08-28T23:52:47.978Z,97528.53
2022-08-28T23:55:49.934Z,97529.72
2022-08-28T23:58:53.233Z,97524.88
